createdAt,value
2018-07-16T00:00:15.590Z,5.27
2018-07-16T00:02:42.909Z,5.10
2018-07-16T00:05:10.366Z,5.43
2018-07-16T00:07:37.924Z,4.93
2018-07-16T00:10:05.228Z,4.97
2018-07-16T00:12:32.520Z,4.63
2018-07-16T00:14:59.772Z,4.70
2018-07-16T00:17:27.254Z,4.50
2018-07-16T00:19:54.564Z,4.70
2018-07-16T00:22:21.933Z,4.40
2018-07-16T00:24:49.583Z,5.70
2018-07-16T00:27:16.959Z,4.40
2018-07-16T00:29:45.382Z,5.70
2018-07-16T00:32:12.811Z,5.80
2018-07-16T00:34:40.196Z,4.00
2018-07-16T00:37:07.607Z,4.50
2018-07-16T00:39:34.895Z,5.00
2018-07-16T00:42:02.367Z,4.40
2018-07-16T00:44:29.830Z,4.20
2018-07-16T00:46:57.215Z,4.77
2018-07-16T00:49:24.666Z,4.50
2018-07-16T00:51:52.151Z,5.40
2018-07-16T00:54:19.453Z,4.53
2018-07-16T00:56:46.872Z,4.60
2018-07-16T00:59:14.170Z,4.70
2018-07-16T01:01:41.447Z,4.60
2018-07-16T01:04:08.744Z,4.57
2018-07-16T01:06:36.018Z,5.57
2018-07-16T01:09:04.035Z,5.43
2018-07-16T01:11:31.326Z,5.10
2018-07-16T01:13:58.834Z,5.63
2018-07-16T01:16:26.107Z,6.20
2018-07-16T01:18:53.547Z,6.00
2018-07-16T01:21:20.984Z,5.20
2018-07-16T01:23:48.359Z,5.47
2018-07-16T01:26:16.409Z,5.90
2018-07-16T01:28:43.977Z,5.60
2018-07-16T01:31:11.462Z,5.30
2018-07-16T01:33:39.062Z,5.57
2018-07-16T01:36:06.424Z,5.90
2018-07-16T01:38:33.944Z,5.40
2018-07-16T01:41:01.327Z,5.27
2018-07-16T01:43:28.647Z,5.17
2018-07-16T01:45:56.311Z,5.47
2018-07-16T01:48:23.593Z,5.27
2018-07-16T01:50:50.985Z,5.40
2018-07-16T01:53:18.567Z,5.00
2018-07-16T01:55:46.019Z,5.30
2018-07-16T01:58:13.479Z,4.60
2018-07-16T02:00:46.466Z,5.37
2018-07-16T02:03:13.733Z,5.37
2018-07-16T02:05:41.081Z,5.80
2018-07-16T02:08:08.473Z,5.57
2018-07-16T02:10:35.803Z,6.20
2018-07-16T02:13:03.176Z,6.47
2018-07-16T02:15:30.479Z,5.80
2018-07-16T02:17:57.893Z,6.60
2018-07-16T02:20:25.269Z,6.77
2018-07-16T02:22:52.581Z,5.73
2018-07-16T02:25:19.932Z,6.60
2018-07-16T02:27:47.335Z,6.47
2018-07-16T02:30:14.627Z,6.03
2018-07-16T02:32:41.957Z,6.20
2018-07-16T02:35:09.305Z,6.47
2018-07-16T02:37:36.599Z,5.93
2018-07-16T02:40:04.041Z,5.60
2018-07-16T02:42:31.298Z,5.17
2018-07-16T02:44:58.627Z,5.97
2018-07-16T02:47:25.918Z,5.90
2018-07-16T02:49:53.324Z,5.67
2018-07-16T02:52:20.838Z,5.73
2018-07-16T02:54:48.141Z,6.03
2018-07-16T02:57:15.456Z,5.70
2018-07-16T02:59:42.798Z,5.57
2018-07-16T03:02:10.109Z,6.20
2018-07-16T03:04:37.629Z,7.43
2018-07-16T03:07:04.964Z,5.97
2018-07-16T03:09:32.240Z,5.50
2018-07-16T03:11:59.674Z,6.80
2018-07-16T03:14:26.982Z,5.83
2018-07-16T03:16:54.306Z,6.10
2018-07-16T03:19:21.599Z,5.67
2018-07-16T03:21:48.886Z,5.43
2018-07-16T03:24:16.237Z,6.13
2018-07-16T03:26:43.514Z,6.90
2018-07-16T03:29:10.820Z,6.40
2018-07-16T03:31:38.209Z,6.80
2018-07-16T03:34:05.530Z,7.20
2018-07-16T03:36:32.814Z,7.10
2018-07-16T03:39:00.086Z,6.70
2018-07-16T03:41:27.415Z,6.13
2018-07-16T03:43:54.820Z,7.10
2018-07-16T03:46:22.293Z,7.10
2018-07-16T03:48:49.740Z,7.30
2018-07-16T03:51:17.252Z,7.93
2018-07-16T03:53:44.589Z,7.90
2018-07-16T03:56:11.871Z,7.40
2018-07-16T03:58:39.203Z,7.33
2018-07-16T04:01:06.734Z,7.40
2018-07-16T04:03:34.193Z,9.10
2018-07-16T04:06:01.711Z,7.20
2018-07-16T04:08:29.263Z,9.20
2018-07-16T04:10:56.882Z,9.10
2018-07-16T04:13:24.242Z,8.77
2018-07-16T04:15:51.568Z,8.00
2018-07-16T04:18:20.504Z,8.83
2018-07-16T04:20:48.534Z,8.37
2018-07-16T04:23:16.298Z,8.27
2018-07-16T04:25:43.595Z,8.10
2018-07-16T04:28:10.919Z,8.07
2018-07-16T04:30:38.254Z,9.20
2018-07-16T04:33:05.566Z,8.33
2018-07-16T04:35:33.022Z,9.60
2018-07-16T04:38:00.297Z,9.70
2018-07-16T04:40:27.699Z,8.90
2018-07-16T04:42:55.207Z,8.97
2018-07-16T04:45:22.546Z,8.73
2018-07-16T04:47:49.848Z,10.00
2018-07-16T04:50:17.437Z,10.50
2018-07-16T04:52:44.861Z,9.27
2018-07-16T04:55:12.263Z,9.87
2018-07-16T04:57:39.513Z,8.80
2018-07-16T05:00:07.041Z,8.93
2018-07-16T05:02:34.419Z,9.10
2018-07-16T05:05:01.823Z,9.23
2018-07-16T05:07:29.138Z,8.90
2018-07-16T05:09:56.487Z,9.00
2018-07-16T05:12:23.942Z,8.30
2018-07-16T05:14:51.225Z,9.80
2018-07-16T05:17:18.689Z,10.57
2018-07-16T05:19:46.146Z,9.30
2018-07-16T05:22:13.542Z,9.70
2018-07-16T05:24:40.850Z,9.50
2018-07-16T05:27:08.179Z,10.17
2018-07-16T05:29:35.723Z,10.50
2018-07-16T05:32:03.299Z,9.13
2018-07-16T05:34:30.622Z,11.40
2018-07-16T05:36:57.912Z,10.33
2018-07-16T05:39:25.192Z,10.20
2018-07-16T05:41:52.786Z,11.90
2018-07-16T05:44:20.229Z,11.20
2018-07-16T05:46:47.569Z,11.10
2018-07-16T05:49:14.983Z,10.93
2018-07-16T05:51:42.276Z,11.97
2018-07-16T05:54:09.594Z,12.30
2018-07-16T05:56:37.022Z,12.60
2018-07-16T05:59:04.746Z,12.17
2018-07-16T06:01:32.084Z,11.77
2018-07-16T06:03:59.395Z,11.30
2018-07-16T06:06:27.093Z,12.03
2018-07-16T06:08:54.523Z,11.87
2018-07-16T06:11:21.982Z,12.50
2018-07-16T06:13:49.467Z,13.37
2018-07-16T06:16:16.889Z,12.60
2018-07-16T06:18:44.220Z,12.83
2018-07-16T06:21:11.575Z,11.60
2018-07-16T06:23:38.934Z,12.87
2018-07-16T06:26:06.478Z,13.23
2018-07-16T06:28:33.894Z,12.97
2018-07-16T06:31:01.402Z,11.80
2018-07-16T06:33:28.846Z,11.70
2018-07-16T06:35:58.835Z,12.87
2018-07-16T06:38:31.256Z,12.10
2018-07-16T06:40:59.142Z,13.90
2018-07-16T06:43:26.508Z,14.93
2018-07-16T06:45:53.767Z,14.63
2018-07-16T06:48:21.135Z,16.00
2018-07-16T06:50:48.425Z,16.53
2018-07-16T06:53:15.838Z,16.27
2018-07-16T06:55:44.247Z,16.50
2018-07-16T06:58:11.710Z,17.60
2018-07-16T07:00:39.076Z,16.20
2018-07-16T07:03:06.551Z,15.73
2018-07-16T07:05:33.854Z,16.90
2018-07-16T07:08:01.225Z,16.30
2018-07-16T07:10:28.682Z,16.80
2018-07-16T07:12:56.130Z,16.73
2018-07-16T07:15:23.577Z,14.57
2018-07-16T07:17:50.934Z,15.20
2018-07-16T07:20:18.223Z,14.67
2018-07-16T07:22:45.791Z,15.83
2018-07-16T07:25:13.124Z,14.60
2018-07-16T07:27:40.528Z,14.43
2018-07-16T07:30:07.857Z,15.80
2018-07-16T07:32:35.202Z,14.73
2018-07-16T07:35:02.730Z,15.70
2018-07-16T07:37:29.950Z,16.33
2018-07-16T07:39:57.320Z,16.77
2018-07-16T07:42:24.598Z,16.00
2018-07-16T07:44:51.934Z,16.77
2018-07-16T07:47:19.256Z,17.57
2018-07-16T07:49:46.758Z,17.10
2018-07-16T07:52:14.067Z,17.00
2018-07-16T07:54:41.776Z,16.50
2018-07-16T07:57:09.173Z,17.63
2018-07-16T07:59:36.526Z,17.03
2018-07-16T08:02:04.146Z,16.60
2018-07-16T08:04:31.511Z,15.00
2018-07-16T08:07:04.304Z,16.60
2018-07-16T08:09:31.674Z,15.57
2018-07-16T08:11:59.443Z,16.30
2018-07-16T08:14:26.847Z,17.43
2018-07-16T08:16:54.232Z,16.40
2018-07-16T08:19:21.609Z,19.47
2018-07-16T08:21:48.972Z,16.40
2018-07-16T08:24:16.417Z,18.83
2018-07-16T08:26:43.750Z,20.40
2018-07-16T08:29:11.116Z,16.53
2018-07-16T08:31:38.472Z,16.50
2018-07-16T08:34:06.238Z,16.00
2018-07-16T08:36:33.580Z,14.00
2018-07-16T08:39:00.965Z,13.80
2018-07-16T08:41:28.327Z,15.47
2018-07-16T08:43:55.797Z,17.07
2018-07-16T08:46:23.431Z,17.80
2018-07-16T08:48:50.719Z,17.27
2018-07-16T08:51:18.124Z,17.57
2018-07-16T08:53:45.622Z,21.53
2018-07-16T08:56:13.027Z,19.63
2018-07-16T08:58:40.398Z,18.43
2018-07-16T09:01:07.756Z,17.27
2018-07-16T09:03:35.048Z,16.90
2018-07-16T09:06:04.034Z,14.03
2018-07-16T09:08:31.815Z,16.50
2018-07-16T09:10:59.382Z,17.70
2018-07-16T09:13:27.044Z,17.53
2018-07-16T09:15:54.265Z,17.73
2018-07-16T09:18:21.665Z,15.70
2018-07-16T09:20:49.108Z,16.30
2018-07-16T09:23:16.600Z,14.40
2018-07-16T09:25:43.899Z,14.60
2018-07-16T09:28:11.223Z,14.90
2018-07-16T09:30:38.529Z,14.13
2018-07-16T09:33:05.872Z,14.00
2018-07-16T09:35:33.245Z,13.80
2018-07-16T09:38:00.603Z,14.43
2018-07-16T09:40:28.136Z,12.87
2018-07-16T09:42:55.453Z,13.03
2018-07-16T09:45:22.920Z,11.77
2018-07-16T09:47:50.408Z,12.77
2018-07-16T09:50:17.796Z,12.67
2018-07-16T09:52:45.405Z,13.23
2018-07-16T09:55:12.867Z,13.10
2018-07-16T09:57:40.219Z,12.40
2018-07-16T10:00:07.642Z,13.13
2018-07-16T10:02:34.971Z,12.63
2018-07-16T10:05:02.537Z,15.23
2018-07-16T10:07:29.856Z,15.23
2018-07-16T10:09:57.147Z,14.13
2018-07-16T10:12:24.584Z,14.00
2018-07-16T10:14:52.017Z,15.00
2018-07-16T10:17:19.654Z,12.60
2018-07-16T10:19:46.956Z,12.30
2018-07-16T10:22:14.445Z,10.83
2018-07-16T10:24:41.836Z,10.93
2018-07-16T10:27:09.184Z,10.70
2018-07-16T10:29:36.535Z,10.33
2018-07-16T10:32:03.958Z,8.97
2018-07-16T10:34:31.333Z,7.60
2018-07-16T10:36:58.911Z,8.90
2018-07-16T10:39:26.296Z,7.57
2018-07-16T10:41:53.565Z,8.27
2018-07-16T10:44:21.341Z,7.23
2018-07-16T10:46:48.597Z,7.30
2018-07-16T10:49:16.026Z,7.00
2018-07-16T10:51:43.357Z,6.57
2018-07-16T10:54:10.720Z,6.80
2018-07-16T10:56:38.125Z,6.57
2018-07-16T10:59:05.618Z,5.70
2018-07-16T11:01:33.024Z,5.73
2018-07-16T11:04:00.590Z,5.00
2018-07-16T11:06:27.935Z,5.00
2018-07-16T11:08:55.514Z,5.70
2018-07-16T11:11:23.040Z,5.70
2018-07-16T11:13:50.333Z,5.70
2018-07-16T11:16:18.177Z,6.00
2018-07-16T11:18:45.761Z,6.20
2018-07-16T11:21:13.143Z,5.60
2018-07-16T11:23:40.613Z,5.50
2018-07-16T11:26:08.304Z,4.70
2018-07-16T11:28:35.672Z,5.30
2018-07-16T11:31:03.123Z,5.03
2018-07-16T11:33:30.501Z,5.40
2018-07-16T11:35:57.919Z,4.40
2018-07-16T11:38:25.326Z,5.10
2018-07-16T11:40:52.676Z,5.00
2018-07-16T11:43:20.055Z,5.10
2018-07-16T11:45:47.646Z,5.40
2018-07-16T11:48:15.453Z,4.83
2018-07-16T11:50:42.982Z,4.60
2018-07-16T11:53:10.689Z,5.27
2018-07-16T11:55:38.111Z,6.17
2018-07-16T11:58:05.416Z,4.47
2018-07-16T12:00:33.014Z,4.70
2018-07-16T12:03:00.506Z,5.00
2018-07-16T12:05:27.856Z,5.00
2018-07-16T12:07:55.243Z,4.20
2018-07-16T12:10:22.851Z,3.60
2018-07-16T12:12:50.181Z,5.27
2018-07-16T12:15:17.502Z,4.17
2018-07-16T12:17:44.869Z,4.23
2018-07-16T12:20:12.416Z,4.43
2018-07-16T12:22:39.716Z,4.50
2018-07-16T12:25:07.163Z,6.17
2018-07-16T12:27:34.485Z,4.50
2018-07-16T12:30:01.811Z,4.40
2018-07-16T12:32:29.107Z,4.27
2018-07-16T12:34:56.832Z,3.97
2018-07-16T12:37:24.127Z,4.30
2018-07-16T12:39:51.829Z,4.67
2018-07-16T12:42:19.372Z,4.20
2018-07-16T12:44:46.697Z,4.87
2018-07-16T12:47:14.219Z,4.33
2018-07-16T12:49:41.630Z,12.10
2018-07-16T12:52:09.012Z,4.17
2018-07-16T12:54:36.402Z,3.57
2018-07-16T12:57:03.787Z,3.53
2018-07-16T12:59:31.074Z,3.83
2018-07-16T13:01:58.444Z,4.90
2018-07-16T13:04:25.827Z,3.30
2018-07-16T13:06:53.157Z,4.17
2018-07-16T13:09:20.516Z,3.47
2018-07-16T13:11:47.867Z,3.50
2018-07-16T13:14:15.301Z,8.37
2018-07-16T13:16:42.661Z,6.73
2018-07-16T13:19:10.044Z,6.83
2018-07-16T13:21:37.484Z,3.20
2018-07-16T13:24:04.772Z,4.10
2018-07-16T13:26:32.496Z,10.43
2018-07-16T13:29:00.002Z,4.23
2018-07-16T13:31:27.388Z,3.10
2018-07-16T13:33:55.200Z,3.30
2018-07-16T13:36:22.788Z,5.03
2018-07-16T13:38:50.289Z,3.30
2018-07-16T13:41:17.622Z,3.50
2018-07-16T13:43:45.345Z,2.93
2018-07-16T13:46:12.789Z,3.37
2018-07-16T13:48:40.123Z,3.30
2018-07-16T13:51:07.718Z,3.30
2018-07-16T13:53:35.080Z,3.47
2018-07-16T13:56:02.669Z,3.40
2018-07-16T13:58:29.981Z,3.40
2018-07-16T14:00:57.600Z,5.30
2018-07-16T14:03:24.910Z,5.57
2018-07-16T14:05:52.338Z,29.53
2018-07-16T14:08:19.647Z,4.57
2018-07-16T14:10:47.018Z,3.80
2018-07-16T14:13:14.504Z,3.70
2018-07-16T14:15:41.852Z,3.83
2018-07-16T14:18:09.161Z,3.10
2018-07-16T14:20:36.886Z,3.47
2018-07-16T14:23:04.266Z,2.90
2018-07-16T14:25:31.818Z,2.87
2018-07-16T14:28:00.644Z,3.30
2018-07-16T14:30:27.978Z,3.10
2018-07-16T14:32:55.431Z,3.53
2018-07-16T14:35:22.821Z,4.93
2018-07-16T14:37:50.402Z,3.10
2018-07-16T14:40:17.740Z,3.03
2018-07-16T14:42:45.574Z,3.57
2018-07-16T14:45:13.296Z,4.63
2018-07-16T14:47:40.588Z,3.97
2018-07-16T14:50:08.350Z,2.93
2018-07-16T14:52:35.773Z,3.07
2018-07-16T14:55:03.271Z,2.87
2018-07-16T14:57:30.771Z,2.90
2018-07-16T14:59:58.415Z,3.23
2018-07-16T15:02:25.753Z,3.33
2018-07-16T15:04:53.292Z,2.90
2018-07-16T15:08:45.059Z,3.13
2018-07-16T15:11:12.869Z,4.80
2018-07-16T15:13:40.643Z,3.33
2018-07-16T15:16:08.344Z,3.10
2018-07-16T15:18:35.710Z,4.00
2018-07-16T15:21:03.294Z,4.93
2018-07-16T15:23:30.598Z,3.00
2018-07-16T15:25:58.057Z,3.10
2018-07-16T15:28:25.538Z,2.73
2018-07-16T15:30:52.945Z,3.13
2018-07-16T15:33:20.280Z,3.10
2018-07-16T15:35:47.642Z,2.73
2018-07-16T15:38:15.128Z,3.40
2018-07-16T15:40:42.610Z,2.90
2018-07-16T15:43:10.132Z,3.20
2018-07-16T15:45:37.727Z,3.53
2018-07-16T15:48:05.093Z,3.33
2018-07-16T15:50:32.704Z,3.17
2018-07-16T15:53:00.164Z,3.50
2018-07-16T15:55:27.558Z,2.90
2018-07-16T15:57:55.382Z,3.10
2018-07-16T16:00:22.864Z,3.90
2018-07-16T16:02:50.387Z,2.90
2018-07-16T16:05:17.684Z,3.43
2018-07-16T16:07:45.029Z,3.53
2018-07-16T16:10:12.594Z,3.60
2018-07-16T16:12:39.967Z,3.10
2018-07-16T16:15:07.286Z,3.00
2018-07-16T16:17:34.974Z,3.13
2018-07-16T16:20:02.275Z,3.33
2018-07-16T16:22:29.655Z,3.07
2018-07-16T16:24:56.974Z,5.80
2018-07-16T16:27:24.285Z,3.60
2018-07-16T16:29:51.772Z,2.90
2018-07-16T16:32:19.702Z,2.77
2018-07-16T16:34:47.026Z,3.30
2018-07-16T16:37:14.632Z,3.07
2018-07-16T16:39:41.979Z,2.93
2018-07-16T16:42:09.604Z,3.30
2018-07-16T16:44:37.336Z,3.10
2018-07-16T16:47:04.771Z,2.90
2018-07-16T16:49:32.285Z,2.83
2018-07-16T16:51:59.880Z,2.43
2018-07-16T16:54:27.487Z,3.23
2018-07-16T16:56:55.250Z,3.27
2018-07-16T16:59:22.641Z,3.00
2018-07-16T17:01:50.025Z,3.10
2018-07-16T17:04:17.533Z,2.90
2018-07-16T17:06:44.986Z,3.50
2018-07-16T17:09:12.716Z,3.17
2018-07-16T17:11:40.305Z,2.60
2018-07-16T17:14:07.644Z,3.20
2018-07-16T17:16:35.113Z,2.60
2018-07-16T17:19:02.639Z,2.67
2018-07-16T17:21:30.596Z,2.63
2018-07-16T17:23:57.901Z,3.10
2018-07-16T17:26:25.258Z,2.60
2018-07-16T17:28:52.602Z,2.80
2018-07-16T17:31:20.020Z,2.57
2018-07-16T17:33:48.309Z,2.60
2018-07-16T17:36:15.820Z,2.43
2018-07-16T17:38:43.254Z,2.80
2018-07-16T17:41:10.733Z,2.70
2018-07-16T17:43:38.054Z,2.50
2018-07-16T17:46:05.443Z,2.67
2018-07-16T17:48:33.048Z,2.90
2018-07-16T17:51:00.429Z,2.77
2018-07-16T17:53:27.891Z,2.80
2018-07-16T17:55:55.658Z,2.80
2018-07-16T17:58:22.895Z,2.57
2018-07-16T18:00:50.373Z,3.20
2018-07-16T18:03:18.089Z,2.40
2018-07-16T18:05:45.458Z,2.40
2018-07-16T18:08:13.134Z,2.80
2018-07-16T18:10:40.667Z,2.23
2018-07-16T18:13:08.073Z,2.40
2018-07-16T18:15:35.494Z,2.50
2018-07-16T18:18:02.947Z,2.50
2018-07-16T18:20:30.963Z,2.70
2018-07-16T18:22:58.770Z,2.80
2018-07-16T18:25:26.220Z,3.13
2018-07-16T18:27:53.579Z,2.40
2018-07-16T18:30:21.262Z,3.33
2018-07-16T18:32:48.894Z,3.07
2018-07-16T18:35:16.655Z,2.60
2018-07-16T18:37:44.136Z,2.90
2018-07-16T18:40:11.890Z,3.30
2018-07-16T18:42:39.335Z,2.83
2018-07-16T18:45:06.944Z,2.90
2018-07-16T18:47:34.269Z,3.00
2018-07-16T18:50:01.617Z,2.90
2018-07-16T18:52:29.142Z,3.00
2018-07-16T18:54:56.591Z,2.93
2018-07-16T18:57:24.323Z,3.03
2018-07-16T18:59:51.793Z,3.50
2018-07-16T19:02:19.249Z,3.73
2018-07-16T19:04:46.627Z,3.53
2018-07-16T19:07:14.010Z,3.23
2018-07-16T19:09:41.706Z,4.30
2018-07-16T19:12:09.067Z,4.20
2018-07-16T19:14:36.571Z,3.87
2018-07-16T19:17:03.984Z,3.60
2018-07-16T19:19:31.923Z,3.80
2018-07-16T19:21:59.562Z,3.60
2018-07-16T19:24:27.386Z,3.93
2018-07-16T19:26:54.791Z,4.30
2018-07-16T19:29:22.335Z,4.30
2018-07-16T19:31:49.735Z,5.20
2018-07-16T19:34:17.166Z,4.70
2018-07-16T19:36:44.605Z,4.17
2018-07-16T19:39:12.459Z,4.30
2018-07-16T19:41:40.086Z,4.20
2018-07-16T19:44:07.502Z,4.00
2018-07-16T19:46:35.040Z,4.13
2018-07-16T19:49:02.523Z,4.00
2018-07-16T19:51:29.982Z,4.63
2018-07-16T19:53:57.334Z,4.20
2018-07-16T19:56:25.213Z,4.43
2018-07-16T19:58:52.703Z,4.63
2018-07-16T20:01:20.426Z,5.00
2018-07-16T20:03:47.782Z,4.60
2018-07-16T20:06:15.671Z,4.03
2018-07-16T20:08:43.017Z,3.93
2018-07-16T20:11:10.340Z,3.90
2018-07-16T20:13:37.700Z,4.30
2018-07-16T20:16:05.538Z,4.03
2018-07-16T20:18:33.284Z,4.70
2018-07-16T20:21:02.090Z,5.23
2018-07-16T20:23:29.312Z,4.33
2018-07-16T20:25:58.140Z,5.40
2018-07-16T20:28:27.257Z,5.03
2018-07-16T20:30:55.005Z,6.10
2018-07-16T20:33:22.941Z,6.20
2018-07-16T20:35:50.345Z,5.80
2018-07-16T20:38:18.744Z,4.83
2018-07-16T20:40:46.531Z,5.07
2018-07-16T20:43:13.864Z,4.80
2018-07-16T20:45:41.285Z,5.43
2018-07-16T20:48:08.900Z,5.40
2018-07-16T20:50:36.311Z,6.90
2018-07-16T20:53:03.757Z,6.07
2018-07-16T20:55:31.398Z,6.30
2018-07-16T20:57:59.353Z,7.80
2018-07-16T21:00:26.882Z,7.47
2018-07-16T21:02:54.317Z,7.63
2018-07-16T21:05:21.694Z,6.70
2018-07-16T21:07:49.245Z,5.80
2018-07-16T21:10:16.639Z,6.50
2018-07-16T21:12:44.381Z,6.57
2018-07-16T21:15:12.230Z,6.10
2018-07-16T21:17:39.930Z,4.57
2018-07-16T21:20:07.749Z,5.03
2018-07-16T21:22:35.159Z,4.70
2018-07-16T21:25:02.645Z,4.50
2018-07-16T21:27:30.400Z,4.10
2018-07-16T21:29:57.775Z,4.47
2018-07-16T21:32:25.242Z,4.77
2018-07-16T21:34:52.625Z,4.60
2018-07-16T21:37:19.934Z,4.60
2018-07-16T21:39:47.231Z,4.40
2018-07-16T21:42:14.605Z,4.20
2018-07-16T21:44:41.965Z,4.30
2018-07-16T21:47:09.332Z,4.70
2018-07-16T21:49:36.816Z,3.80
2018-07-16T21:52:04.682Z,3.67
2018-07-16T21:54:32.512Z,4.00
2018-07-16T21:57:00.211Z,3.90
2018-07-16T21:59:27.519Z,3.90
2018-07-16T22:01:55.000Z,3.77
2018-07-16T22:04:22.361Z,3.90
2018-07-16T22:06:49.707Z,5.80
2018-07-16T22:09:17.066Z,4.37
2018-07-16T22:11:44.485Z,4.60
2018-07-16T22:14:12.049Z,5.30
2018-07-16T22:16:39.411Z,5.10
2018-07-16T22:19:07.264Z,5.40
2018-07-16T22:21:34.568Z,5.17
2018-07-16T22:24:01.891Z,4.47
2018-07-16T22:26:29.530Z,5.13
2018-07-16T22:28:56.931Z,5.67
2018-07-16T22:31:24.231Z,5.37
2018-07-16T22:33:51.585Z,5.50
2018-07-16T22:36:19.195Z,5.17
2018-07-16T22:38:47.044Z,5.17
2018-07-16T22:41:14.664Z,4.87
2018-07-16T22:43:41.988Z,4.70
2018-07-16T22:46:09.770Z,3.90
2018-07-16T22:48:37.090Z,4.33
2018-07-16T22:51:04.443Z,4.30
2018-07-16T22:53:32.039Z,3.83
2018-07-16T22:55:59.340Z,4.00
2018-07-16T22:58:26.707Z,4.20
2018-07-16T23:00:54.076Z,4.33
2018-07-16T23:03:21.502Z,4.70
2018-07-16T23:05:48.959Z,4.33
2018-07-16T23:08:17.498Z,4.60
2018-07-16T23:10:44.934Z,4.50
2018-07-16T23:13:12.512Z,4.23
2018-07-16T23:15:39.945Z,4.80
2018-07-16T23:18:07.284Z,4.13
2018-07-16T23:20:34.866Z,4.50
2018-07-16T23:23:02.347Z,4.77
2018-07-16T23:25:29.857Z,5.13
2018-07-16T23:27:57.823Z,4.30
2018-07-16T23:30:25.098Z,4.70
2018-07-16T23:32:52.430Z,4.30
2018-07-16T23:35:19.736Z,4.60
2018-07-16T23:37:47.544Z,4.77
2018-07-16T23:40:14.909Z,4.97
2018-07-16T23:42:42.382Z,5.13
2018-07-16T23:45:09.721Z,5.20
2018-07-16T23:47:37.305Z,5.33
2018-07-16T23:50:04.993Z,4.60
2018-07-16T23:52:32.593Z,4.80
2018-07-16T23:55:00.179Z,4.80
2018-07-16T23:57:27.518Z,4.80
2018-07-16T23:59:55.203Z,5.13
